sensor_id;sensor_type;location;lat;lon;timestamp;P1;durP1;ratioP1;P2;durP2;ratioP2
69030;SDS011;56083;48.774;8.942;2022-10-16T00:00:31;4.35;;;1.60;;
69030;SDS011;56083;48.774;8.942;2022-10-16T00:02:57;2.10;;;1.40;;
69030;SDS011;56083;48.774;8.942;2022-10-16T00:05:23;5.13;;;1.65;;
69030;SDS011;56083;48.774;8.942;2022-10-16T00:07:49;12.45;;;2.08;;
69030;SDS011;56083;48.774;8.942;2022-10-16T00:10:14;2.70;;;1.50;;
69030;SDS011;56083;48.774;8.942;2022-10-16T00:12:40;4.57;;;1.63;;
69030;SDS011;56083;48.774;8.942;2022-10-16T00:15:06;4.47;;;1.65;;
69030;SDS011;56083;48.774;8.942;2022-10-16T00:17:32;9.73;;;1.90;;
69030;SDS011;56083;48.774;8.942;2022-10-16T00:19:58;2.65;;;1.73;;
69030;SDS011;56083;48.774;8.942;2022-10-16T00:22:23;6.20;;;1.67;;
69030;SDS011;56083;48.774;8.942;2022-10-16T00:24:49;6.43;;;1.90;;
69030;SDS011;56083;48.774;8.942;2022-10-16T00:27:15;3.90;;;1.70;;
69030;SDS011;56083;48.774;8.942;2022-10-16T00:29:41;2.33;;;1.30;;
69030;SDS011;56083;48.774;8.942;2022-10-16T00:32:07;4.07;;;1.63;;
69030;SDS011;56083;48.774;8.942;2022-10-16T00:34:33;4.65;;;1.80;;
69030;SDS011;56083;48.774;8.942;2022-10-16T00:36:59;4.70;;;1.58;;
69030;SDS011;56083;48.774;8.942;2022-10-16T00:39:25;7.00;;;1.98;;
69030;SDS011;56083;48.774;8.942;2022-10-16T00:41:51;3.75;;;1.65;;
69030;SDS011;56083;48.774;8.942;2022-10-16T00:53:00;6.60;;;1.60;;
69030;SDS011;56083;48.774;8.942;2022-10-16T00:55:27;14.65;;;1.80;;
69030;SDS011;56083;48.774;8.942;2022-10-16T00:57:55;2.85;;;1.60;;
69030;SDS011;56083;48.774;8.942;2022-10-16T01:00:23;4.75;;;1.50;;
69030;SDS011;56083;48.774;8.942;2022-10-16T01:02:54;6.28;;;1.58;;
69030;SDS011;56083;48.774;8.942;2022-10-16T01:05:21;10.00;;;1.70;;
69030;SDS011;56083;48.774;8.942;2022-10-16T01:10:40;4.00;;;1.48;;
69030;SDS011;56083;48.774;8.942;2022-10-16T01:13:24;4.13;;;1.75;;
69030;SDS011;56083;48.774;8.942;2022-10-16T01:16:01;6.78;;;1.35;;
69030;SDS011;56083;48.774;8.942;2022-10-16T01:18:34;5.60;;;1.30;;
69030;SDS011;56083;48.774;8.942;2022-10-16T01:21:10;4.95;;;1.55;;
69030;SDS011;56083;48.774;8.942;2022-10-16T01:31:56;3.28;;;1.58;;
69030;SDS011;56083;48.774;8.942;2022-10-16T01:34:35;8.68;;;1.65;;
69030;SDS011;56083;48.774;8.942;2022-10-16T01:37:07;8.30;;;1.50;;
69030;SDS011;56083;48.774;8.942;2022-10-16T01:39:38;2.42;;;1.40;;
69030;SDS011;56083;48.774;8.942;2022-10-16T01:42:22;4.28;;;1.60;;
69030;SDS011;56083;48.774;8.942;2022-10-16T01:44:52;9.88;;;1.65;;
69030;SDS011;56083;48.774;8.942;2022-10-16T01:47:19;2.70;;;1.40;;
69030;SDS011;56083;48.774;8.942;2022-10-16T01:49:48;7.70;;;1.50;;
69030;SDS011;56083;48.774;8.942;2022-10-16T01:52:17;4.28;;;1.50;;
69030;SDS011;56083;48.774;8.942;2022-10-16T01:54:46;5.82;;;1.80;;
69030;SDS011;56083;48.774;8.942;2022-10-16T01:57:14;4.72;;;1.90;;
69030;SDS011;56083;48.774;8.942;2022-10-16T01:59:44;5.78;;;1.50;;
69030;SDS011;56083;48.774;8.942;2022-10-16T02:02:14;4.63;;;1.45;;
69030;SDS011;56083;48.774;8.942;2022-10-16T02:04:46;2.67;;;1.50;;
69030;SDS011;56083;48.774;8.942;2022-10-16T02:07:14;3.20;;;1.70;;
69030;SDS011;56083;48.774;8.942;2022-10-16T02:09:41;6.03;;;1.60;;
69030;SDS011;56083;48.774;8.942;2022-10-16T02:14:53;2.28;;;1.60;;
69030;SDS011;56083;48.774;8.942;2022-10-16T02:17:19;3.58;;;1.35;;
69030;SDS011;56083;48.774;8.942;2022-10-16T02:19:46;3.38;;;1.60;;
69030;SDS011;56083;48.774;8.942;2022-10-16T02:25:11;4.15;;;1.70;;
69030;SDS011;56083;48.774;8.942;2022-10-16T02:28:00;3.47;;;1.60;;
69030;SDS011;56083;48.774;8.942;2022-10-16T02:30:45;4.15;;;1.50;;
69030;SDS011;56083;48.774;8.942;2022-10-16T02:35:44;6.63;;;1.60;;
69030;SDS011;56083;48.774;8.942;2022-10-16T02:38:13;3.45;;;1.48;;
69030;SDS011;56083;48.774;8.942;2022-10-16T02:40:41;7.07;;;1.60;;
69030;SDS011;56083;48.774;8.942;2022-10-16T02:43:07;7.60;;;1.48;;
69030;SDS011;56083;48.774;8.942;2022-10-16T02:45:34;5.30;;;1.48;;
69030;SDS011;56083;48.774;8.942;2022-10-16T02:48:00;7.43;;;1.33;;
69030;SDS011;56083;48.774;8.942;2022-10-16T02:50:26;3.38;;;1.50;;
69030;SDS011;56083;48.774;8.942;2022-10-16T02:52:52;7.30;;;1.40;;
69030;SDS011;56083;48.774;8.942;2022-10-16T02:55:17;5.00;;;1.70;;
69030;SDS011;56083;48.774;8.942;2022-10-16T02:57:43;4.07;;;1.50;;
69030;SDS011;56083;48.774;8.942;2022-10-16T03:00:09;4.43;;;1.42;;
69030;SDS011;56083;48.774;8.942;2022-10-16T03:02:38;3.95;;;1.48;;
69030;SDS011;56083;48.774;8.942;2022-10-16T03:05:05;4.43;;;1.50;;
69030;SDS011;56083;48.774;8.942;2022-10-16T03:07:31;2.00;;;1.50;;
69030;SDS011;56083;48.774;8.942;2022-10-16T03:09:56;3.97;;;1.45;;
69030;SDS011;56083;48.774;8.942;2022-10-16T03:12:25;6.15;;;1.75;;
69030;SDS011;56083;48.774;8.942;2022-10-16T03:14:53;4.60;;;1.42;;
69030;SDS011;56083;48.774;8.942;2022-10-16T03:17:20;3.70;;;1.63;;
69030;SDS011;56083;48.774;8.942;2022-10-16T03:19:46;2.78;;;1.52;;
69030;SDS011;56083;48.774;8.942;2022-10-16T03:22:11;8.60;;;1.88;;
69030;SDS011;56083;48.774;8.942;2022-10-16T03:24:37;3.03;;;1.80;;
69030;SDS011;56083;48.774;8.942;2022-10-16T03:27:02;3.83;;;1.63;;
69030;SDS011;56083;48.774;8.942;2022-10-16T03:29:28;4.20;;;1.83;;
69030;SDS011;56083;48.774;8.942;2022-10-16T03:31:54;4.32;;;1.58;;
69030;SDS011;56083;48.774;8.942;2022-10-16T03:34:21;2.78;;;1.58;;
69030;SDS011;56083;48.774;8.942;2022-10-16T03:36:46;7.85;;;1.80;;
69030;SDS011;56083;48.774;8.942;2022-10-16T03:39:12;4.47;;;1.70;;
69030;SDS011;56083;48.774;8.942;2022-10-16T03:41:38;2.33;;;1.70;;
69030;SDS011;56083;48.774;8.942;2022-10-16T03:44:04;3.90;;;1.63;;
69030;SDS011;56083;48.774;8.942;2022-10-16T03:46:30;4.47;;;1.67;;
69030;SDS011;56083;48.774;8.942;2022-10-16T03:48:56;5.35;;;1.60;;
69030;SDS011;56083;48.774;8.942;2022-10-16T03:51:22;6.03;;;1.63;;
69030;SDS011;56083;48.774;8.942;2022-10-16T03:53:47;6.38;;;1.70;;
69030;SDS011;56083;48.774;8.942;2022-10-16T03:56:13;4.95;;;1.90;;
69030;SDS011;56083;48.774;8.942;2022-10-16T03:58:39;4.68;;;1.80;;
69030;SDS011;56083;48.774;8.942;2022-10-16T04:01:04;4.45;;;1.70;;
69030;SDS011;56083;48.774;8.942;2022-10-16T04:03:30;5.45;;;1.83;;
69030;SDS011;56083;48.774;8.942;2022-10-16T04:05:56;8.10;;;1.80;;
69030;SDS011;56083;48.774;8.942;2022-10-16T04:08:21;6.65;;;1.80;;
69030;SDS011;56083;48.774;8.942;2022-10-16T04:10:47;4.72;;;1.77;;
69030;SDS011;56083;48.774;8.942;2022-10-16T04:13:13;5.18;;;1.60;;
69030;SDS011;56083;48.774;8.942;2022-10-16T04:15:39;3.40;;;1.67;;
69030;SDS011;56083;48.774;8.942;2022-10-16T04:18:05;2.92;;;1.77;;
69030;SDS011;56083;48.774;8.942;2022-10-16T04:20:31;8.93;;;1.80;;
69030;SDS011;56083;48.774;8.942;2022-10-16T04:22:58;4.95;;;1.40;;
69030;SDS011;56083;48.774;8.942;2022-10-16T04:25:23;5.15;;;1.60;;
69030;SDS011;56083;48.774;8.942;2022-10-16T04:27:49;2.88;;;1.70;;
69030;SDS011;56083;48.774;8.942;2022-10-16T04:30:14;7.35;;;1.65;;
69030;SDS011;56083;48.774;8.942;2022-10-16T04:32:40;5.57;;;1.60;;
69030;SDS011;56083;48.774;8.942;2022-10-16T04:35:06;8.20;;;1.65;;
69030;SDS011;56083;48.774;8.942;2022-10-16T04:37:32;6.47;;;1.70;;
69030;SDS011;56083;48.774;8.942;2022-10-16T04:39:57;2.83;;;1.48;;
69030;SDS011;56083;48.774;8.942;2022-10-16T04:42:23;4.55;;;1.98;;
69030;SDS011;56083;48.774;8.942;2022-10-16T04:44:49;3.42;;;2.03;;
69030;SDS011;56083;48.774;8.942;2022-10-16T04:47:14;4.38;;;1.73;;
69030;SDS011;56083;48.774;8.942;2022-10-16T04:49:40;4.25;;;1.70;;
69030;SDS011;56083;48.774;8.942;2022-10-16T04:52:06;6.45;;;1.95;;
69030;SDS011;56083;48.774;8.942;2022-10-16T04:54:31;4.70;;;1.73;;
69030;SDS011;56083;48.774;8.942;2022-10-16T04:56:57;4.38;;;1.70;;
69030;SDS011;56083;48.774;8.942;2022-10-16T04:59:23;3.08;;;1.55;;
69030;SDS011;56083;48.774;8.942;2022-10-16T05:01:48;4.28;;;1.58;;
69030;SDS011;56083;48.774;8.942;2022-10-16T05:04:14;11.43;;;3.63;;
69030;SDS011;56083;48.774;8.942;2022-10-16T05:06:40;9.00;;;2.95;;
69030;SDS011;56083;48.774;8.942;2022-10-16T05:09:06;7.43;;;2.40;;
69030;SDS011;56083;48.774;8.942;2022-10-16T05:11:33;6.32;;;2.35;;
69030;SDS011;56083;48.774;8.942;2022-10-16T05:13:59;5.47;;;1.88;;
69030;SDS011;56083;48.774;8.942;2022-10-16T05:16:25;7.05;;;2.22;;
69030;SDS011;56083;48.774;8.942;2022-10-16T05:18:51;7.70;;;2.08;;
69030;SDS011;56083;48.774;8.942;2022-10-16T05:21:17;4.32;;;1.70;;
69030;SDS011;56083;48.774;8.942;2022-10-16T05:23:43;4.30;;;1.88;;
69030;SDS011;56083;48.774;8.942;2022-10-16T05:26:08;7.25;;;1.83;;
69030;SDS011;56083;48.774;8.942;2022-10-16T05:28:34;4.10;;;1.83;;
69030;SDS011;56083;48.774;8.942;2022-10-16T05:31:03;5.70;;;1.92;;
69030;SDS011;56083;48.774;8.942;2022-10-16T05:33:33;4.63;;;1.90;;
69030;SDS011;56083;48.774;8.942;2022-10-16T05:38:29;6.30;;;2.10;;
69030;SDS011;56083;48.774;8.942;2022-10-16T05:40:55;5.75;;;2.00;;
69030;SDS011;56083;48.774;8.942;2022-10-16T05:43:21;5.57;;;2.00;;
69030;SDS011;56083;48.774;8.942;2022-10-16T05:46:01;4.95;;;2.00;;
69030;SDS011;56083;48.774;8.942;2022-10-16T05:48:30;4.45;;;1.92;;
69030;SDS011;56083;48.774;8.942;2022-10-16T05:50:57;2.92;;;1.88;;
69030;SDS011;56083;48.774;8.942;2022-10-16T05:53:23;4.93;;;2.10;;
69030;SDS011;56083;48.774;8.942;2022-10-16T05:55:56;5.82;;;2.00;;
69030;SDS011;56083;48.774;8.942;2022-10-16T05:58:23;7.18;;;1.95;;
69030;SDS011;56083;48.774;8.942;2022-10-16T06:00:54;6.97;;;2.00;;
69030;SDS011;56083;48.774;8.942;2022-10-16T06:03:25;4.97;;;2.00;;
69030;SDS011;56083;48.774;8.942;2022-10-16T06:05:51;5.07;;;2.28;;
69030;SDS011;56083;48.774;8.942;2022-10-16T06:08:18;2.80;;;1.90;;
69030;SDS011;56083;48.774;8.942;2022-10-16T06:10:44;2.35;;;1.80;;
69030;SDS011;56083;48.774;8.942;2022-10-16T06:13:12;5.85;;;1.70;;
69030;SDS011;56083;48.774;8.942;2022-10-16T06:15:38;5.47;;;1.80;;
69030;SDS011;56083;48.774;8.942;2022-10-16T06:18:06;5.47;;;1.88;;
69030;SDS011;56083;48.774;8.942;2022-10-16T06:20:32;3.65;;;1.60;;
69030;SDS011;56083;48.774;8.942;2022-10-16T06:22:58;7.35;;;1.83;;
69030;SDS011;56083;48.774;8.942;2022-10-16T06:25:24;7.43;;;1.88;;
69030;SDS011;56083;48.774;8.942;2022-10-16T06:27:49;11.40;;;1.80;;
69030;SDS011;56083;48.774;8.942;2022-10-16T06:30:15;6.95;;;1.70;;
69030;SDS011;56083;48.774;8.942;2022-10-16T06:32:40;5.95;;;1.88;;
69030;SDS011;56083;48.774;8.942;2022-10-16T06:35:06;2.28;;;1.50;;
69030;SDS011;56083;48.774;8.942;2022-10-16T06:37:32;6.55;;;2.88;;
69030;SDS011;56083;48.774;8.942;2022-10-16T06:39:58;5.80;;;2.00;;
69030;SDS011;56083;48.774;8.942;2022-10-16T06:42:25;8.05;;;2.10;;
69030;SDS011;56083;48.774;8.942;2022-10-16T06:44:51;2.70;;;1.85;;
69030;SDS011;56083;48.774;8.942;2022-10-16T06:47:16;5.75;;;2.20;;
69030;SDS011;56083;48.774;8.942;2022-10-16T06:49:42;3.38;;;2.10;;
69030;SDS011;56083;48.774;8.942;2022-10-16T06:52:08;7.13;;;2.28;;
69030;SDS011;56083;48.774;8.942;2022-10-16T06:54:34;6.05;;;2.03;;
69030;SDS011;56083;48.774;8.942;2022-10-16T06:56:59;2.42;;;1.73;;
69030;SDS011;56083;48.774;8.942;2022-10-16T06:59:26;6.05;;;1.80;;
69030;SDS011;56083;48.774;8.942;2022-10-16T07:01:52;8.05;;;1.90;;
69030;SDS011;56083;48.774;8.942;2022-10-16T07:04:18;5.40;;;1.60;;
69030;SDS011;56083;48.774;8.942;2022-10-16T07:06:44;3.55;;;1.40;;
69030;SDS011;56083;48.774;8.942;2022-10-16T07:09:10;3.70;;;1.48;;
69030;SDS011;56083;48.774;8.942;2022-10-16T07:11:37;4.68;;;1.58;;
69030;SDS011;56083;48.774;8.942;2022-10-16T07:14:05;3.53;;;1.50;;
69030;SDS011;56083;48.774;8.942;2022-10-16T07:16:40;4.78;;;1.80;;
69030;SDS011;56083;48.774;8.942;2022-10-16T07:19:05;4.47;;;1.50;;
69030;SDS011;56083;48.774;8.942;2022-10-16T07:21:32;2.60;;;1.33;;
69030;SDS011;56083;48.774;8.942;2022-10-16T07:24:02;3.00;;;1.35;;
69030;SDS011;56083;48.774;8.942;2022-10-16T07:26:30;2.30;;;1.30;;
69030;SDS011;56083;48.774;8.942;2022-10-16T07:28:58;2.25;;;1.52;;
69030;SDS011;56083;48.774;8.942;2022-10-16T07:31:24;3.70;;;1.40;;
69030;SDS011;56083;48.774;8.942;2022-10-16T07:33:50;4.28;;;1.65;;
69030;SDS011;56083;48.774;8.942;2022-10-16T07:38:47;5.30;;;1.58;;
69030;SDS011;56083;48.774;8.942;2022-10-16T07:41:14;12.38;;;1.30;;
69030;SDS011;56083;48.774;8.942;2022-10-16T07:43:44;4.55;;;1.55;;
69030;SDS011;56083;48.774;8.942;2022-10-16T07:46:13;2.40;;;1.38;;
69030;SDS011;56083;48.774;8.942;2022-10-16T07:48:40;3.97;;;1.45;;
69030;SDS011;56083;48.774;8.942;2022-10-16T07:51:06;4.97;;;1.27;;
69030;SDS011;56083;48.774;8.942;2022-10-16T07:53:32;4.63;;;1.40;;
69030;SDS011;56083;48.774;8.942;2022-10-16T07:55:58;2.15;;;1.40;;
69030;SDS011;56083;48.774;8.942;2022-10-16T07:58:25;4.80;;;1.38;;
69030;SDS011;56083;48.774;8.942;2022-10-16T08:00:52;4.70;;;1.20;;
69030;SDS011;56083;48.774;8.942;2022-10-16T08:03:18;3.10;;;1.15;;
69030;SDS011;56083;48.774;8.942;2022-10-16T08:05:44;4.57;;;1.20;;
69030;SDS011;56083;48.774;8.942;2022-10-16T08:08:13;6.32;;;1.27;;
69030;SDS011;56083;48.774;8.942;2022-10-16T08:10:40;4.57;;;1.35;;
69030;SDS011;56083;48.774;8.942;2022-10-16T08:13:06;4.63;;;1.33;;
69030;SDS011;56083;48.774;8.942;2022-10-16T08:15:31;4.32;;;1.30;;
69030;SDS011;56083;48.774;8.942;2022-10-16T08:18:01;5.45;;;1.42;;
69030;SDS011;56083;48.774;8.942;2022-10-16T08:20:29;3.33;;;1.40;;
69030;SDS011;56083;48.774;8.942;2022-10-16T08:22:56;3.72;;;1.40;;
69030;SDS011;56083;48.774;8.942;2022-10-16T08:25:22;6.40;;;1.80;;
69030;SDS011;56083;48.774;8.942;2022-10-16T08:27:49;3.35;;;1.40;;
69030;SDS011;56083;48.774;8.942;2022-10-16T08:30:15;1.85;;;1.42;;
69030;SDS011;56083;48.774;8.942;2022-10-16T08:32:42;2.95;;;1.38;;
69030;SDS011;56083;48.774;8.942;2022-10-16T08:35:09;1.67;;;1.17;;
69030;SDS011;56083;48.774;8.942;2022-10-16T08:37:35;4.53;;;1.15;;
69030;SDS011;56083;48.774;8.942;2022-10-16T08:40:01;4.10;;;1.20;;
69030;SDS011;56083;48.774;8.942;2022-10-16T08:50:17;6.65;;;1.25;;
69030;SDS011;56083;48.774;8.942;2022-10-16T08:52:49;5.05;;;1.40;;
69030;SDS011;56083;48.774;8.942;2022-10-16T08:55:16;6.55;;;1.40;;
69030;SDS011;56083;48.774;8.942;2022-10-16T08:58:14;6.38;;;1.30;;
69030;SDS011;56083;48.774;8.942;2022-10-16T09:00:46;2.40;;;1.60;;
69030;SDS011;56083;48.774;8.942;2022-10-16T09:03:38;2.85;;;1.20;;
69030;SDS011;56083;48.774;8.942;2022-10-16T09:06:15;3.63;;;1.50;;
69030;SDS011;56083;48.774;8.942;2022-10-16T09:09:11;2.45;;;1.17;;
69030;SDS011;56083;48.774;8.942;2022-10-16T09:11:51;3.17;;;1.30;;
69030;SDS011;56083;48.774;8.942;2022-10-16T09:17:27;5.25;;;1.63;;
69030;SDS011;56083;48.774;8.942;2022-10-16T09:23:00;1.60;;;1.20;;
69030;SDS011;56083;48.774;8.942;2022-10-16T09:25:37;6.00;;;1.08;;
69030;SDS011;56083;48.774;8.942;2022-10-16T09:28:07;5.55;;;1.25;;
69030;SDS011;56083;48.774;8.942;2022-10-16T09:30:34;8.93;;;1.27;;
69030;SDS011;56083;48.774;8.942;2022-10-16T09:33:00;6.47;;;1.10;;
69030;SDS011;56083;48.774;8.942;2022-10-16T09:35:41;4.80;;;1.42;;
69030;SDS011;56083;48.774;8.942;2022-10-16T09:38:09;3.97;;;1.10;;
69030;SDS011;56083;48.774;8.942;2022-10-16T09:40:50;3.65;;;1.20;;
69030;SDS011;56083;48.774;8.942;2022-10-16T09:45:54;2.85;;;1.75;;
69030;SDS011;56083;48.774;8.942;2022-10-16T09:48:21;8.32;;;1.27;;
69030;SDS011;56083;48.774;8.942;2022-10-16T09:50:57;5.03;;;1.60;;
69030;SDS011;56083;48.774;8.942;2022-10-16T09:53:26;4.00;;;1.38;;
69030;SDS011;56083;48.774;8.942;2022-10-16T09:56:02;9.35;;;1.52;;
69030;SDS011;56083;48.774;8.942;2022-10-16T09:58:30;4.78;;;1.23;;
69030;SDS011;56083;48.774;8.942;2022-10-16T10:00:58;4.05;;;1.23;;
69030;SDS011;56083;48.774;8.942;2022-10-16T10:03:40;2.83;;;1.15;;
69030;SDS011;56083;48.774;8.942;2022-10-16T10:06:24;2.90;;;1.42;;
69030;SDS011;56083;48.774;8.942;2022-10-16T10:16:49;6.78;;;1.33;;
69030;SDS011;56083;48.774;8.942;2022-10-16T10:19:17;4.70;;;1.05;;
69030;SDS011;56083;48.774;8.942;2022-10-16T10:21:44;7.80;;;1.00;;
69030;SDS011;56083;48.774;8.942;2022-10-16T10:24:11;5.03;;;1.05;;
69030;SDS011;56083;48.774;8.942;2022-10-16T10:26:49;1.80;;;1.00;;
69030;SDS011;56083;48.774;8.942;2022-10-16T10:35:12;4.80;;;1.00;;
69030;SDS011;56083;48.774;8.942;2022-10-16T10:40:49;2.30;;;1.10;;
69030;SDS011;56083;48.774;8.942;2022-10-16T10:46:16;5.10;;;1.30;;
69030;SDS011;56083;48.774;8.942;2022-10-16T10:51:44;6.03;;;1.42;;
69030;SDS011;56083;48.774;8.942;2022-10-16T10:57:02;4.57;;;1.63;;
69030;SDS011;56083;48.774;8.942;2022-10-16T11:02:19;3.80;;;1.55;;
69030;SDS011;56083;48.774;8.942;2022-10-16T11:07:43;6.43;;;1.30;;
69030;SDS011;56083;48.774;8.942;2022-10-16T11:10:16;2.15;;;0.93;;
69030;SDS011;56083;48.774;8.942;2022-10-16T11:13:13;4.97;;;1.20;;
69030;SDS011;56083;48.774;8.942;2022-10-16T11:15:40;5.30;;;1.15;;
69030;SDS011;56083;48.774;8.942;2022-10-16T11:18:22;4.38;;;0.93;;
69030;SDS011;56083;48.774;8.942;2022-10-16T11:21:06;7.15;;;1.25;;
69030;SDS011;56083;48.774;8.942;2022-10-16T11:26:27;4.00;;;1.00;;
69030;SDS011;56083;48.774;8.942;2022-10-16T11:28:57;3.85;;;0.90;;
69030;SDS011;56083;48.774;8.942;2022-10-16T11:34:10;2.63;;;0.93;;
69030;SDS011;56083;48.774;8.942;2022-10-16T11:37:12;6.00;;;1.15;;
69030;SDS011;56083;48.774;8.942;2022-10-16T11:39:43;2.78;;;1.13;;
69030;SDS011;56083;48.774;8.942;2022-10-16T11:44:46;1.95;;;1.00;;
69030;SDS011;56083;48.774;8.942;2022-10-16T11:55:47;4.43;;;1.10;;
69030;SDS011;56083;48.774;8.942;2022-10-16T11:58:21;3.55;;;1.10;;
69030;SDS011;56083;48.774;8.942;2022-10-16T12:09:11;4.93;;;1.10;;
69030;SDS011;56083;48.774;8.942;2022-10-16T12:11:46;5.45;;;0.98;;
69030;SDS011;56083;48.774;8.942;2022-10-16T12:16:38;1.42;;;0.93;;
69030;SDS011;56083;48.774;8.942;2022-10-16T12:19:25;1.85;;;0.90;;
69030;SDS011;56083;48.774;8.942;2022-10-16T12:21:54;2.30;;;0.90;;
69030;SDS011;56083;48.774;8.942;2022-10-16T12:26:53;2.75;;;1.00;;
69030;SDS011;56083;48.774;8.942;2022-10-16T12:31:57;7.60;;;1.15;;
69030;SDS011;56083;48.774;8.942;2022-10-16T12:34:26;1.63;;;0.90;;
69030;SDS011;56083;48.774;8.942;2022-10-16T12:36:54;5.00;;;1.08;;
69030;SDS011;56083;48.774;8.942;2022-10-16T12:39:32;2.67;;;0.80;;
69030;SDS011;56083;48.774;8.942;2022-10-16T12:42:02;8.43;;;1.40;;
69030;SDS011;56083;48.774;8.942;2022-10-16T12:44:33;2.53;;;1.10;;
69030;SDS011;56083;48.774;8.942;2022-10-16T12:47:00;4.93;;;1.20;;
69030;SDS011;56083;48.774;8.942;2022-10-16T12:51:56;4.95;;;1.20;;
69030;SDS011;56083;48.774;8.942;2022-10-16T13:08:24;2.33;;;1.20;;
69030;SDS011;56083;48.774;8.942;2022-10-16T13:13:53;3.47;;;1.00;;
69030;SDS011;56083;48.774;8.942;2022-10-16T13:19:08;3.88;;;1.10;;
69030;SDS011;56083;48.774;8.942;2022-10-16T13:30:16;2.20;;;1.00;;
69030;SDS011;56083;48.774;8.942;2022-10-16T13:32:48;4.15;;;1.40;;
69030;SDS011;56083;48.774;8.942;2022-10-16T13:35:21;4.65;;;1.38;;
69030;SDS011;56083;48.774;8.942;2022-10-16T13:38:02;2.88;;;0.98;;
69030;SDS011;56083;48.774;8.942;2022-10-16T13:40:29;6.28;;;1.30;;
69030;SDS011;56083;48.774;8.942;2022-10-16T13:42:55;2.45;;;1.10;;
69030;SDS011;56083;48.774;8.942;2022-10-16T13:45:22;2.60;;;1.10;;
69030;SDS011;56083;48.774;8.942;2022-10-16T13:48:05;3.63;;;1.23;;
69030;SDS011;56083;48.774;8.942;2022-10-16T13:50:34;5.35;;;1.50;;
69030;SDS011;56083;48.774;8.942;2022-10-16T13:53:09;3.67;;;1.20;;
69030;SDS011;56083;48.774;8.942;2022-10-16T13:55:38;3.20;;;1.40;;
69030;SDS011;56083;48.774;8.942;2022-10-16T13:58:08;2.50;;;1.35;;
69030;SDS011;56083;48.774;8.942;2022-10-16T14:00:37;7.70;;;1.20;;
69030;SDS011;56083;48.774;8.942;2022-10-16T14:03:04;4.35;;;1.25;;
69030;SDS011;56083;48.774;8.942;2022-10-16T14:05:32;3.15;;;1.20;;
69030;SDS011;56083;48.774;8.942;2022-10-16T14:07:58;4.32;;;1.23;;
69030;SDS011;56083;48.774;8.942;2022-10-16T14:10:26;6.05;;;1.33;;
69030;SDS011;56083;48.774;8.942;2022-10-16T14:13:02;3.35;;;1.35;;
69030;SDS011;56083;48.774;8.942;2022-10-16T14:15:30;4.10;;;1.13;;
69030;SDS011;56083;48.774;8.942;2022-10-16T14:17:58;3.65;;;1.20;;
69030;SDS011;56083;48.774;8.942;2022-10-16T14:20:25;2.72;;;1.20;;
69030;SDS011;56083;48.774;8.942;2022-10-16T14:23:04;4.18;;;1.40;;
69030;SDS011;56083;48.774;8.942;2022-10-16T14:25:47;9.65;;;1.27;;
69030;SDS011;56083;48.774;8.942;2022-10-16T14:30:50;5.32;;;1.30;;
69030;SDS011;56083;48.774;8.942;2022-10-16T14:38:35;6.60;;;1.85;;
69030;SDS011;56083;48.774;8.942;2022-10-16T14:41:03;5.18;;;1.25;;
69030;SDS011;56083;48.774;8.942;2022-10-16T14:43:36;5.30;;;1.75;;
69030;SDS011;56083;48.774;8.942;2022-10-16T14:46:06;6.80;;;1.42;;
69030;SDS011;56083;48.774;8.942;2022-10-16T14:48:43;8.30;;;1.20;;
69030;SDS011;56083;48.774;8.942;2022-10-16T14:51:15;5.72;;;1.35;;
69030;SDS011;56083;48.774;8.942;2022-10-16T14:53:41;9.65;;;1.40;;
69030;SDS011;56083;48.774;8.942;2022-10-16T14:56:07;3.33;;;1.20;;
69030;SDS011;56083;48.774;8.942;2022-10-16T14:58:39;3.28;;;1.13;;
69030;SDS011;56083;48.774;8.942;2022-10-16T15:01:05;7.05;;;1.30;;
69030;SDS011;56083;48.774;8.942;2022-10-16T15:03:33;5.85;;;1.20;;
69030;SDS011;56083;48.774;8.942;2022-10-16T15:05:59;6.55;;;1.20;;
69030;SDS011;56083;48.774;8.942;2022-10-16T15:08:24;3.30;;;1.40;;
69030;SDS011;56083;48.774;8.942;2022-10-16T15:10:50;12.88;;;1.48;;
69030;SDS011;56083;48.774;8.942;2022-10-16T15:13:16;8.98;;;1.40;;
69030;SDS011;56083;48.774;8.942;2022-10-16T15:15:46;5.35;;;1.20;;
69030;SDS011;56083;48.774;8.942;2022-10-16T15:18:12;4.13;;;1.27;;
69030;SDS011;56083;48.774;8.942;2022-10-16T15:20:40;8.10;;;1.30;;
69030;SDS011;56083;48.774;8.942;2022-10-16T15:23:10;16.15;;;1.63;;
69030;SDS011;56083;48.774;8.942;2022-10-16T15:25:57;3.67;;;1.20;;
69030;SDS011;56083;48.774;8.942;2022-10-16T15:28:23;6.28;;;1.20;;
69030;SDS011;56083;48.774;8.942;2022-10-16T15:30:51;10.10;;;1.42;;
69030;SDS011;56083;48.774;8.942;2022-10-16T15:33:22;6.00;;;1.10;;
69030;SDS011;56083;48.774;8.942;2022-10-16T15:35:52;5.78;;;1.15;;
69030;SDS011;56083;48.774;8.942;2022-10-16T15:38:19;6.05;;;1.10;;
69030;SDS011;56083;48.774;8.942;2022-10-16T15:40:47;11.57;;;1.58;;
69030;SDS011;56083;48.774;8.942;2022-10-16T15:43:13;6.15;;;1.60;;
69030;SDS011;56083;48.774;8.942;2022-10-16T15:45:39;8.15;;;1.58;;
69030;SDS011;56083;48.774;8.942;2022-10-16T15:48:05;12.55;;;1.80;;
69030;SDS011;56083;48.774;8.942;2022-10-16T15:50:31;11.10;;;1.73;;
69030;SDS011;56083;48.774;8.942;2022-10-16T15:52:57;11.52;;;1.50;;
69030;SDS011;56083;48.774;8.942;2022-10-16T15:55:23;5.97;;;1.55;;
69030;SDS011;56083;48.774;8.942;2022-10-16T15:57:50;6.50;;;1.30;;
69030;SDS011;56083;48.774;8.942;2022-10-16T16:00:16;6.97;;;1.60;;
69030;SDS011;56083;48.774;8.942;2022-10-16T16:02:50;3.35;;;1.33;;
69030;SDS011;56083;48.774;8.942;2022-10-16T16:05:17;10.55;;;2.08;;
69030;SDS011;56083;48.774;8.942;2022-10-16T16:07:43;14.18;;;2.17;;
69030;SDS011;56083;48.774;8.942;2022-10-16T16:10:09;14.23;;;2.38;;
69030;SDS011;56083;48.774;8.942;2022-10-16T16:12:36;18.38;;;2.30;;
69030;SDS011;56083;48.774;8.942;2022-10-16T16:15:03;16.05;;;1.90;;
69030;SDS011;56083;48.774;8.942;2022-10-16T16:17:31;7.07;;;2.13;;
69030;SDS011;56083;48.774;8.942;2022-10-16T16:19:57;9.48;;;1.98;;
69030;SDS011;56083;48.774;8.942;2022-10-16T16:22:23;11.93;;;2.17;;
69030;SDS011;56083;48.774;8.942;2022-10-16T16:24:49;14.10;;;2.95;;
69030;SDS011;56083;48.774;8.942;2022-10-16T16:27:14;15.50;;;3.05;;
69030;SDS011;56083;48.774;8.942;2022-10-16T16:29:40;20.90;;;2.50;;
69030;SDS011;56083;48.774;8.942;2022-10-16T16:32:06;8.45;;;2.47;;
69030;SDS011;56083;48.774;8.942;2022-10-16T16:34:32;19.23;;;2.63;;
69030;SDS011;56083;48.774;8.942;2022-10-16T16:36:58;14.65;;;2.25;;
69030;SDS011;56083;48.774;8.942;2022-10-16T16:39:23;13.75;;;2.40;;
69030;SDS011;56083;48.774;8.942;2022-10-16T16:41:49;12.65;;;2.42;;
69030;SDS011;56083;48.774;8.942;2022-10-16T16:44:15;15.48;;;2.53;;
69030;SDS011;56083;48.774;8.942;2022-10-16T16:46:42;7.95;;;2.25;;
69030;SDS011;56083;48.774;8.942;2022-10-16T16:49:09;10.30;;;2.67;;
69030;SDS011;56083;48.774;8.942;2022-10-16T16:51:36;14.25;;;2.90;;
69030;SDS011;56083;48.774;8.942;2022-10-16T16:54:03;11.00;;;2.60;;
69030;SDS011;56083;48.774;8.942;2022-10-16T16:56:29;14.57;;;2.67;;
69030;SDS011;56083;48.774;8.942;2022-10-16T16:58:56;27.13;;;4.57;;
69030;SDS011;56083;48.774;8.942;2022-10-16T17:01:23;14.10;;;2.88;;
69030;SDS011;56083;48.774;8.942;2022-10-16T17:03:51;9.75;;;2.83;;
69030;SDS011;56083;48.774;8.942;2022-10-16T17:06:19;14.30;;;2.90;;
69030;SDS011;56083;48.774;8.942;2022-10-16T17:08:46;16.10;;;2.90;;
69030;SDS011;56083;48.774;8.942;2022-10-16T17:11:14;9.00;;;3.45;;
69030;SDS011;56083;48.774;8.942;2022-10-16T17:13:42;26.65;;;8.82;;
69030;SDS011;56083;48.774;8.942;2022-10-16T17:16:08;22.40;;;11.05;;
69030;SDS011;56083;48.774;8.942;2022-10-16T17:18:34;22.92;;;10.25;;
69030;SDS011;56083;48.774;8.942;2022-10-16T17:21:01;30.55;;;10.07;;
69030;SDS011;56083;48.774;8.942;2022-10-16T17:23:28;17.52;;;7.25;;
69030;SDS011;56083;48.774;8.942;2022-10-16T17:25:54;19.48;;;7.70;;